createdAt,value
2017-07-18T00:01:57.529Z,4.30
2017-07-18T00:04:25.813Z,4.63
2017-07-18T00:06:53.299Z,4.67
2017-07-18T00:09:20.804Z,6.03
2017-07-18T00:11:48.327Z,4.40
2017-07-18T00:14:16.601Z,4.20
2017-07-18T00:16:44.107Z,4.60
2017-07-18T00:19:11.624Z,5.53
2017-07-18T00:21:39.113Z,6.27
2017-07-18T00:24:07.397Z,4.53
2017-07-18T00:26:35.027Z,4.50
2017-07-18T00:29:02.547Z,4.90
2017-07-18T00:31:30.023Z,4.80
2017-07-18T00:33:57.528Z,4.67
2017-07-18T00:36:25.012Z,4.10
2017-07-18T00:38:52.532Z,4.43
2017-07-18T00:41:20.031Z,5.67
2017-07-18T00:43:47.545Z,4.40
2017-07-18T00:46:15.032Z,5.07
2017-07-18T00:48:42.537Z,4.40
2017-07-18T00:51:10.015Z,4.53
2017-07-18T00:53:37.504Z,4.77
2017-07-18T00:56:05.013Z,4.47
2017-07-18T00:58:32.504Z,4.90
2017-07-18T01:01:00.007Z,4.53
2017-07-18T01:03:27.492Z,4.70
2017-07-18T01:05:55.005Z,5.27
2017-07-18T01:08:22.505Z,5.40
2017-07-18T01:10:50.009Z,5.07
2017-07-18T01:13:17.499Z,4.33
2017-07-18T01:15:45.011Z,5.97
2017-07-18T01:18:12.509Z,4.67
2017-07-18T01:20:40.818Z,4.87
2017-07-18T01:23:08.308Z,4.43
2017-07-18T01:25:35.820Z,4.83
2017-07-18T01:28:03.326Z,5.83
2017-07-18T01:30:30.841Z,4.83
2017-07-18T01:32:58.343Z,4.83
2017-07-18T01:35:25.855Z,5.00
2017-07-18T01:37:53.344Z,5.50
2017-07-18T01:40:20.853Z,5.83
2017-07-18T01:42:48.346Z,5.43
2017-07-18T01:45:15.850Z,4.63
2017-07-18T01:47:43.340Z,6.30
2017-07-18T01:50:10.866Z,5.23
2017-07-18T01:52:38.357Z,4.60
2017-07-18T01:55:05.847Z,4.70
2017-07-18T01:57:33.352Z,4.40
2017-07-18T02:00:00.851Z,4.93
2017-07-18T02:02:29.174Z,6.77
2017-07-18T02:04:56.677Z,5.20
2017-07-18T02:07:24.258Z,5.07
2017-07-18T02:09:51.742Z,5.20
2017-07-18T02:12:20.030Z,4.30
2017-07-18T02:14:47.540Z,5.83
2017-07-18T02:17:15.046Z,5.50
2017-07-18T02:19:42.536Z,4.83
2017-07-18T02:22:10.810Z,4.97
2017-07-18T02:24:38.329Z,4.80
2017-07-18T02:27:05.857Z,4.70
2017-07-18T02:29:33.346Z,5.10
2017-07-18T02:32:00.864Z,5.30
2017-07-18T02:34:28.369Z,5.33
2017-07-18T02:36:55.868Z,5.70
2017-07-18T02:39:23.355Z,4.67
2017-07-18T02:41:50.859Z,5.63
2017-07-18T02:44:18.392Z,6.47
2017-07-18T02:46:45.909Z,5.10
2017-07-18T02:49:13.402Z,5.17
2017-07-18T02:51:40.912Z,4.40
2017-07-18T02:54:09.159Z,5.93
2017-07-18T02:56:36.668Z,6.10
2017-07-18T02:59:04.185Z,5.60
2017-07-18T03:01:31.695Z,4.83
2017-07-18T03:03:59.963Z,4.90
2017-07-18T03:06:27.466Z,5.07
2017-07-18T03:08:54.972Z,5.03
2017-07-18T03:11:22.477Z,5.27
2017-07-18T03:13:49.996Z,5.03
2017-07-18T03:16:17.484Z,4.93
2017-07-18T03:18:45.011Z,6.03
2017-07-18T03:21:12.521Z,5.03
2017-07-18T03:23:40.020Z,5.10
2017-07-18T03:26:07.529Z,5.57
2017-07-18T03:28:35.028Z,5.03
2017-07-18T03:31:02.525Z,4.87
2017-07-18T03:33:30.029Z,4.87
2017-07-18T03:35:57.525Z,6.83
2017-07-18T03:38:25.041Z,4.80
2017-07-18T03:40:52.530Z,5.63
2017-07-18T03:43:20.032Z,4.63
2017-07-18T03:45:48.280Z,5.07
2017-07-18T03:48:15.789Z,5.13
2017-07-18T03:50:43.293Z,4.87
2017-07-18T03:53:10.791Z,5.13
2017-07-18T03:55:38.312Z,5.77
2017-07-18T03:58:05.795Z,5.60
2017-07-18T04:00:33.306Z,4.93
2017-07-18T04:03:00.800Z,4.97
2017-07-18T04:05:29.080Z,4.93
2017-07-18T04:07:56.621Z,5.87
2017-07-18T04:10:24.129Z,4.70
2017-07-18T04:12:51.615Z,4.73
2017-07-18T04:15:19.125Z,4.50
2017-07-18T04:17:46.620Z,4.77
2017-07-18T04:20:14.141Z,7.17
2017-07-18T04:22:41.633Z,4.90
2017-07-18T04:25:09.160Z,5.40
2017-07-18T04:27:36.656Z,4.57
2017-07-18T04:30:04.158Z,4.60
2017-07-18T04:32:31.654Z,7.17
2017-07-18T04:34:59.174Z,5.13
2017-07-18T04:37:26.680Z,4.80
2017-07-18T04:39:54.274Z,5.83
2017-07-18T04:42:21.801Z,4.90
2017-07-18T04:44:49.338Z,6.57
2017-07-18T04:47:16.909Z,4.93
2017-07-18T04:49:44.432Z,5.00
2017-07-18T04:52:11.928Z,7.47
2017-07-18T04:54:39.426Z,5.10
2017-07-18T04:57:06.943Z,5.47
2017-07-18T04:59:34.446Z,4.80
2017-07-18T05:02:02.022Z,4.93
2017-07-18T05:04:29.540Z,5.90
2017-07-18T05:06:57.053Z,5.20
2017-07-18T05:09:24.537Z,5.90
2017-07-18T05:11:52.065Z,6.37
2017-07-18T05:14:19.553Z,5.20
2017-07-18T05:16:47.828Z,5.73
2017-07-18T05:19:15.316Z,6.20
2017-07-18T05:21:42.847Z,5.27
2017-07-18T05:24:10.326Z,5.30
2017-07-18T05:26:37.849Z,6.00
2017-07-18T05:29:05.349Z,5.60
2017-07-18T05:31:32.869Z,5.67
2017-07-18T05:34:00.355Z,5.50
2017-07-18T05:36:27.857Z,5.30
2017-07-18T05:38:55.344Z,9.43
2017-07-18T05:41:22.847Z,7.60
2017-07-18T05:43:51.131Z,5.30
2017-07-18T05:46:18.655Z,5.37
2017-07-18T05:48:46.167Z,5.70
2017-07-18T05:51:13.694Z,5.17
2017-07-18T05:53:41.179Z,7.20
2017-07-18T05:56:08.676Z,20.03
2017-07-18T05:58:36.181Z,8.90
2017-07-18T06:01:03.690Z,6.43
2017-07-18T06:03:31.189Z,5.87
2017-07-18T06:05:58.672Z,6.13
2017-07-18T06:08:26.181Z,5.43
2017-07-18T06:10:53.672Z,8.13
2017-07-18T06:13:22.990Z,16.20
2017-07-18T06:15:50.496Z,7.50
2017-07-18T06:18:18.760Z,7.73
2017-07-18T06:20:50.263Z,5.13
2017-07-18T06:23:17.803Z,5.23
2017-07-18T06:25:45.301Z,5.23
2017-07-18T06:28:12.809Z,5.30
2017-07-18T06:30:40.300Z,5.63
2017-07-18T06:33:07.802Z,4.93
2017-07-18T06:35:36.060Z,5.63
2017-07-18T06:38:04.330Z,5.73
2017-07-18T06:40:32.585Z,4.70
2017-07-18T06:43:00.102Z,8.93
2017-07-18T06:45:27.612Z,5.40
2017-07-18T06:47:55.126Z,9.00
2017-07-18T06:50:22.712Z,15.17
2017-07-18T06:52:50.273Z,6.73
2017-07-18T06:55:17.763Z,9.37
2017-07-18T06:57:45.248Z,6.73
2017-07-18T07:00:17.551Z,5.90
2017-07-18T07:02:45.049Z,5.83
2017-07-18T07:05:12.562Z,7.70
2017-07-18T07:07:40.061Z,7.40
2017-07-18T07:10:07.578Z,6.20
2017-07-18T07:12:38.653Z,6.97
2017-07-18T07:15:06.192Z,6.80
2017-07-18T07:17:34.441Z,6.73
2017-07-18T07:20:02.726Z,7.07
2017-07-18T07:22:30.214Z,7.23
2017-07-18T07:24:58.381Z,6.00
2017-07-18T07:27:25.872Z,12.27
2017-07-18T07:29:53.367Z,6.67
2017-07-18T07:32:20.865Z,8.20
2017-07-18T07:34:48.379Z,8.50
2017-07-18T07:37:16.630Z,7.73
2017-07-18T07:39:44.900Z,8.10
2017-07-18T07:42:13.144Z,8.07
2017-07-18T07:44:40.701Z,7.30
2017-07-18T07:47:08.944Z,7.87
2017-07-18T07:49:36.443Z,7.40
2017-07-18T07:52:03.929Z,7.43
2017-07-18T07:54:31.421Z,8.33
2017-07-18T07:56:58.904Z,7.83
2017-07-18T07:59:26.428Z,8.43
2017-07-18T08:01:53.913Z,7.50
2017-07-18T08:04:22.159Z,7.57
2017-07-18T08:06:49.660Z,9.70
2017-07-18T08:09:17.144Z,7.70
2017-07-18T08:11:45.468Z,7.97
2017-07-18T08:14:12.968Z,8.97
2017-07-18T08:16:40.471Z,7.93
2017-07-18T08:19:07.959Z,9.30
2017-07-18T08:21:35.477Z,16.30
2017-07-18T08:24:02.984Z,13.10
2017-07-18T08:26:30.489Z,9.30
2017-07-18T08:28:57.974Z,8.27
2017-07-18T08:31:25.475Z,8.17
2017-07-18T08:33:52.971Z,7.37
2017-07-18T08:36:20.474Z,8.00
2017-07-18T08:38:47.956Z,7.07
2017-07-18T08:41:15.473Z,7.93
2017-07-18T08:43:43.044Z,7.40
2017-07-18T08:46:10.726Z,8.90
2017-07-18T08:48:38.217Z,7.80
2017-07-18T08:51:05.716Z,7.30
2017-07-18T08:53:33.211Z,20.00
2017-07-18T08:56:01.693Z,11.97
2017-07-18T08:58:29.220Z,14.33
2017-07-18T09:00:56.735Z,13.90
2017-07-18T09:03:24.229Z,11.07
2017-07-18T09:05:52.489Z,9.40
2017-07-18T09:08:20.761Z,7.60
2017-07-18T09:10:49.012Z,8.97
2017-07-18T09:13:17.280Z,7.87
2017-07-18T09:15:45.548Z,7.67
2017-07-18T09:18:13.056Z,7.50
2017-07-18T09:20:40.540Z,6.70
2017-07-18T09:23:08.048Z,8.60
2017-07-18T09:25:35.543Z,6.83
2017-07-18T09:28:03.048Z,6.63
2017-07-18T09:30:31.296Z,8.43
2017-07-18T09:32:58.799Z,7.03
2017-07-18T09:35:26.277Z,7.27
2017-07-18T09:37:53.783Z,7.53
2017-07-18T09:40:21.263Z,6.80
2017-07-18T09:42:48.770Z,11.27
2017-07-18T09:45:16.256Z,17.00
2017-07-18T09:47:43.825Z,8.13
2017-07-18T09:50:11.320Z,7.95
2017-07-18T09:52:38.832Z,7.57
2017-07-18T09:55:07.080Z,7.12
2017-07-18T09:57:34.596Z,7.55
2017-07-18T10:00:02.848Z,7.90
2017-07-18T10:02:30.355Z,7.53
2017-07-18T10:04:57.838Z,6.95
2017-07-18T10:07:26.085Z,8.02
2017-07-18T10:09:53.596Z,11.68
2017-07-18T10:12:21.079Z,16.60
2017-07-18T10:14:49.351Z,8.77
2017-07-18T10:17:17.607Z,8.32
2017-07-18T10:19:45.881Z,7.05
2017-07-18T10:22:13.369Z,6.78
2017-07-18T10:24:40.880Z,11.05
2017-07-18T10:27:08.367Z,8.32
2017-07-18T10:29:35.864Z,8.10
2017-07-18T10:32:03.363Z,7.53
2017-07-18T10:34:30.869Z,9.52
2017-07-18T10:36:58.381Z,8.25
2017-07-18T10:39:25.880Z,7.12
2017-07-18T10:41:53.363Z,7.78
2017-07-18T10:44:20.865Z,9.07
2017-07-18T10:46:48.347Z,7.75
2017-07-18T10:49:15.850Z,6.75
2017-07-18T10:51:43.336Z,7.55
2017-07-18T10:54:10.839Z,7.47
2017-07-18T10:56:38.319Z,6.68
2017-07-18T10:59:05.827Z,8.10
2017-07-18T11:01:33.320Z,7.95
2017-07-18T11:04:00.833Z,7.70
2017-07-18T11:06:28.317Z,7.78
2017-07-18T11:08:55.805Z,8.07
2017-07-18T11:11:23.314Z,7.75
2017-07-18T11:13:50.817Z,8.98
2017-07-18T11:16:18.341Z,8.80
2017-07-18T11:18:45.828Z,11.77
2017-07-18T11:21:13.332Z,9.15
2017-07-18T11:23:41.583Z,8.45
2017-07-18T11:26:09.848Z,9.32
2017-07-18T11:28:38.104Z,12.40
2017-07-18T11:31:06.367Z,8.50
2017-07-18T11:33:33.852Z,9.17
2017-07-18T11:36:01.359Z,8.23
2017-07-18T11:38:29.613Z,9.03
2017-07-18T11:40:57.123Z,11.27
2017-07-18T11:43:24.618Z,9.93
2017-07-18T11:45:52.131Z,8.83
2017-07-18T11:48:19.609Z,9.20
2017-07-18T11:50:47.112Z,9.03
2017-07-18T11:53:14.591Z,9.50
2017-07-18T11:55:42.100Z,10.43
2017-07-18T11:58:09.581Z,9.03
2017-07-18T12:00:37.084Z,11.37
2017-07-18T12:03:04.575Z,9.50
2017-07-18T12:05:32.060Z,9.70
2017-07-18T12:07:59.564Z,10.20
2017-07-18T12:10:27.052Z,9.70
2017-07-18T12:12:54.550Z,9.13
2017-07-18T12:15:22.046Z,14.27
2017-07-18T12:17:50.322Z,19.87
2017-07-18T12:20:17.816Z,10.73
2017-07-18T12:22:45.328Z,9.53
2017-07-18T12:25:12.817Z,15.00
2017-07-18T12:27:40.335Z,8.87
2017-07-18T12:30:07.840Z,10.40
2017-07-18T12:32:35.339Z,8.07
2017-07-18T12:35:02.827Z,9.57
2017-07-18T12:37:30.332Z,10.07
2017-07-18T12:39:57.836Z,10.13
2017-07-18T12:42:25.354Z,9.87
2017-07-18T12:44:52.855Z,10.03
2017-07-18T12:47:20.363Z,14.93
2017-07-18T12:49:47.840Z,9.20
2017-07-18T12:52:15.340Z,9.00
2017-07-18T12:54:42.816Z,9.60
2017-07-18T12:57:10.331Z,9.97
2017-07-18T12:59:37.829Z,9.37
2017-07-18T13:02:06.080Z,13.53
2017-07-18T13:04:33.588Z,10.43
2017-07-18T13:07:01.078Z,10.17
2017-07-18T13:09:29.349Z,8.47
2017-07-18T13:11:56.832Z,8.60
2017-07-18T13:14:24.343Z,7.70
2017-07-18T13:16:51.825Z,8.63
2017-07-18T13:19:19.332Z,10.47
2017-07-18T13:21:46.820Z,9.00
2017-07-18T13:24:14.329Z,8.10
2017-07-18T13:26:41.834Z,8.60
2017-07-18T13:29:10.109Z,8.80
2017-07-18T13:31:37.585Z,8.77
2017-07-18T13:34:05.075Z,8.30
2017-07-18T13:36:33.352Z,8.13
2017-07-18T13:39:00.864Z,8.03
2017-07-18T13:41:28.356Z,7.90
2017-07-18T13:43:55.860Z,8.87
2017-07-18T13:46:24.104Z,8.20
2017-07-18T13:48:51.609Z,9.77
2017-07-18T13:51:19.096Z,8.20
2017-07-18T13:53:47.375Z,11.20
2017-07-18T13:56:15.624Z,8.40
2017-07-18T13:58:43.888Z,8.27
2017-07-18T14:01:12.145Z,8.83
2017-07-18T14:03:39.651Z,8.90
2017-07-18T14:06:07.147Z,8.23
2017-07-18T14:08:35.388Z,8.53
2017-07-18T14:11:02.893Z,8.17
2017-07-18T14:13:30.397Z,10.60
2017-07-18T14:15:57.917Z,18.90
2017-07-18T14:18:26.163Z,7.83
2017-07-18T14:20:53.728Z,8.50
2017-07-18T14:23:21.232Z,8.40
2017-07-18T14:25:48.732Z,7.80
2017-07-18T14:28:16.217Z,6.70
2017-07-18T14:30:43.712Z,7.77
2017-07-18T14:33:11.200Z,8.63
2017-07-18T14:35:38.711Z,9.07
2017-07-18T14:38:06.197Z,7.67
2017-07-18T14:40:33.724Z,9.23
2017-07-18T14:43:01.224Z,7.87
2017-07-18T14:45:28.744Z,8.20
2017-07-18T14:47:56.249Z,8.60
2017-07-18T14:50:23.745Z,9.13
2017-07-18T14:52:51.229Z,8.40
2017-07-18T14:55:18.736Z,8.07
2017-07-18T14:57:46.235Z,21.33
2017-07-18T15:00:13.844Z,28.27
2017-07-18T15:02:41.337Z,9.93
2017-07-18T15:05:08.828Z,7.77
2017-07-18T15:07:36.347Z,7.87
2017-07-18T15:10:03.840Z,8.43
2017-07-18T15:12:31.348Z,8.33
2017-07-18T15:14:58.840Z,15.97
2017-07-18T15:17:26.347Z,10.27
2017-07-18T15:19:53.900Z,8.57
2017-07-18T15:22:21.399Z,8.00
2017-07-18T15:24:49.661Z,7.50
2017-07-18T15:27:17.180Z,8.10
2017-07-18T15:29:46.829Z,7.90
2017-07-18T15:32:14.336Z,8.33
2017-07-18T15:34:42.580Z,8.53
2017-07-18T15:37:10.081Z,8.43
2017-07-18T15:39:37.568Z,7.93
2017-07-18T15:42:05.853Z,8.17
2017-07-18T15:44:33.434Z,8.27
2017-07-18T15:47:00.945Z,7.33
2017-07-18T15:49:28.432Z,8.17
2017-07-18T15:51:55.939Z,7.50
2017-07-18T15:54:23.428Z,8.77
2017-07-18T15:56:51.719Z,8.30
2017-07-18T15:59:19.231Z,8.57
2017-07-18T16:01:46.733Z,8.23
2017-07-18T16:04:14.214Z,7.40
2017-07-18T16:06:41.696Z,7.70
2017-07-18T16:09:09.192Z,9.10
2017-07-18T16:11:36.694Z,8.87
2017-07-18T16:14:04.195Z,7.00
2017-07-18T16:16:32.452Z,7.53
2017-07-18T16:18:59.961Z,10.40
2017-07-18T16:21:27.457Z,8.00
2017-07-18T16:23:55.716Z,8.00
2017-07-18T16:26:23.204Z,10.60
2017-07-18T16:28:50.718Z,7.50
2017-07-18T16:31:18.203Z,7.77
2017-07-18T16:33:45.734Z,7.73
2017-07-18T16:36:13.223Z,9.90
2017-07-18T16:38:41.483Z,8.53
2017-07-18T16:41:08.968Z,8.57
2017-07-18T16:43:36.481Z,7.63
2017-07-18T16:46:03.967Z,7.93
2017-07-18T16:48:31.471Z,8.20
2017-07-18T16:50:59.725Z,7.13
2017-07-18T16:53:27.236Z,7.57
2017-07-18T16:55:54.711Z,9.23
2017-07-18T16:58:22.211Z,7.87
2017-07-18T17:00:49.697Z,10.73
2017-07-18T17:03:17.196Z,8.07
2017-07-18T17:05:44.689Z,11.63
2017-07-18T17:08:12.194Z,7.20
2017-07-18T17:10:39.701Z,8.70
2017-07-18T17:13:07.193Z,8.03
2017-07-18T17:15:35.454Z,7.93
2017-07-18T17:18:03.696Z,9.13
2017-07-18T17:20:31.195Z,7.97
2017-07-18T17:22:58.682Z,8.60
2017-07-18T17:25:26.196Z,9.13
2017-07-18T17:27:53.694Z,8.07
2017-07-18T17:30:21.195Z,8.10
2017-07-18T17:32:48.672Z,7.97
2017-07-18T17:35:16.960Z,8.30
2017-07-18T17:37:44.453Z,9.57
2017-07-18T17:40:11.951Z,8.67
2017-07-18T17:42:39.432Z,8.10
2017-07-18T17:45:06.949Z,9.70
2017-07-18T17:47:34.438Z,8.50
2017-07-18T17:50:01.956Z,8.87
2017-07-18T17:52:29.499Z,8.07
2017-07-18T17:54:56.991Z,7.97
2017-07-18T17:57:24.481Z,11.20
2017-07-18T17:59:51.989Z,12.23
2017-07-18T18:02:19.524Z,7.67
2017-07-18T18:04:47.065Z,7.97
2017-07-18T18:07:14.576Z,7.67
2017-07-18T18:09:42.103Z,8.00
2017-07-18T18:12:09.612Z,8.90
2017-07-18T18:14:37.104Z,10.83
2017-07-18T18:17:05.364Z,9.23
2017-07-18T18:19:32.841Z,7.77
2017-07-18T18:22:00.335Z,9.53
2017-07-18T18:24:27.820Z,7.50
2017-07-18T18:26:56.186Z,7.90
2017-07-18T18:29:23.670Z,7.73
2017-07-18T18:31:51.168Z,8.80
2017-07-18T18:34:18.663Z,16.37
2017-07-18T18:36:46.177Z,9.13
2017-07-18T18:39:13.663Z,8.67
2017-07-18T18:41:41.168Z,8.30
2017-07-18T18:44:08.648Z,8.10
2017-07-18T18:46:36.924Z,8.47
2017-07-18T18:49:05.188Z,11.67
2017-07-18T18:51:33.467Z,9.23
2017-07-18T18:54:01.877Z,7.47
2017-07-18T18:56:29.379Z,9.70
2017-07-18T18:58:56.904Z,9.97
2017-07-18T19:01:24.422Z,9.27
2017-07-18T19:03:51.910Z,9.33
2017-07-18T19:06:19.423Z,9.63
2017-07-18T19:08:47.716Z,9.93
2017-07-18T19:11:15.204Z,9.47
2017-07-18T19:13:42.723Z,12.43
2017-07-18T19:16:10.212Z,14.60
2017-07-18T19:18:38.483Z,15.30
2017-07-18T19:21:05.979Z,21.03
2017-07-18T19:23:33.579Z,24.73
2017-07-18T19:26:01.097Z,15.37
2017-07-18T19:28:29.409Z,13.60
2017-07-18T19:30:56.900Z,12.33
2017-07-18T19:33:24.414Z,11.13
2017-07-18T19:35:51.904Z,10.73
2017-07-18T19:38:19.415Z,12.03
2017-07-18T19:40:46.895Z,15.37
2017-07-18T19:43:14.407Z,10.97
2017-07-18T19:45:42.674Z,10.80
2017-07-18T19:48:10.948Z,9.57
2017-07-18T19:50:38.469Z,11.63
2017-07-18T19:53:06.072Z,11.27
2017-07-18T19:55:33.548Z,9.67
2017-07-18T19:58:01.061Z,10.30
2017-07-18T20:00:28.546Z,11.17
2017-07-18T20:02:56.816Z,10.40
2017-07-18T20:05:24.314Z,12.80
2017-07-18T20:07:51.840Z,9.57
2017-07-18T20:10:19.332Z,9.50
2017-07-18T20:12:47.612Z,9.47
2017-07-18T20:15:15.124Z,12.33
2017-07-18T20:17:42.608Z,11.20
2017-07-18T20:20:10.972Z,10.40
2017-07-18T20:22:40.318Z,20.30
2017-07-18T20:25:07.828Z,15.43
2017-07-18T20:27:35.320Z,11.60
2017-07-18T20:30:03.596Z,12.73
2017-07-18T20:32:31.083Z,12.00
2017-07-18T20:34:58.607Z,13.43
2017-07-18T20:37:26.095Z,12.50
2017-07-18T20:39:53.595Z,15.00
2017-07-18T20:42:21.077Z,12.57
2017-07-18T20:44:48.592Z,12.93
2017-07-18T20:47:16.087Z,14.07
2017-07-18T20:49:43.591Z,16.50
2017-07-18T20:52:11.075Z,13.70
2017-07-18T20:54:38.584Z,10.50
2017-07-18T20:57:06.197Z,10.00
2017-07-18T20:59:33.697Z,9.93
2017-07-18T21:02:01.941Z,9.90
2017-07-18T21:04:30.203Z,12.53
2017-07-18T21:06:58.456Z,11.00
2017-07-18T21:09:25.973Z,9.73
2017-07-18T21:11:53.448Z,9.80
2017-07-18T21:14:21.724Z,10.67
2017-07-18T21:16:49.240Z,10.20
2017-07-18T21:19:16.718Z,9.23
2017-07-18T21:21:44.225Z,9.73
2017-07-18T21:24:11.715Z,9.27
2017-07-18T21:26:39.215Z,9.80
2017-07-18T21:29:06.696Z,9.67
2017-07-18T21:31:34.202Z,10.07
2017-07-18T21:34:01.684Z,10.20
2017-07-18T21:36:29.188Z,10.53
2017-07-18T21:38:57.435Z,9.57
2017-07-18T21:41:25.715Z,8.93
2017-07-18T21:43:53.977Z,8.60
2017-07-18T21:46:22.243Z,10.87
2017-07-18T21:48:50.519Z,10.57
2017-07-18T21:51:18.015Z,9.50
2017-07-18T21:53:45.500Z,10.57
2017-07-18T21:56:13.016Z,9.63
2017-07-18T21:58:40.500Z,9.00
2017-07-18T22:01:08.000Z,10.50
2017-07-18T22:03:35.475Z,9.00
2017-07-18T22:06:02.986Z,9.17
2017-07-18T22:08:30.480Z,11.30
2017-07-18T22:10:57.967Z,9.97
2017-07-18T22:13:26.236Z,8.90
2017-07-18T22:15:54.488Z,11.93
2017-07-18T22:18:21.993Z,9.10
2017-07-18T22:20:49.476Z,12.60
2017-07-18T22:23:16.989Z,9.70
2017-07-18T22:25:44.475Z,10.23
2017-07-18T22:28:11.968Z,8.60
2017-07-18T22:30:39.444Z,10.37
2017-07-18T22:33:06.944Z,8.93
2017-07-18T22:35:34.433Z,11.80
2017-07-18T22:38:02.699Z,9.80
2017-07-18T22:40:30.195Z,12.47
2017-07-18T22:42:57.704Z,10.10
2017-07-18T22:45:25.188Z,10.63
2017-07-18T22:47:52.693Z,9.83
2017-07-18T22:50:20.179Z,10.23
2017-07-18T22:52:47.685Z,8.97
2017-07-18T22:55:15.169Z,10.27
2017-07-18T22:57:42.662Z,13.93
2017-07-18T23:00:10.143Z,10.07
2017-07-18T23:02:37.657Z,10.80
2017-07-18T23:05:05.136Z,10.70
2017-07-18T23:07:32.611Z,9.93
2017-07-18T23:10:00.914Z,14.60
2017-07-18T23:12:28.407Z,11.20
2017-07-18T23:14:56.675Z,10.80
2017-07-18T23:17:24.924Z,10.80
2017-07-18T23:19:52.428Z,11.53
2017-07-18T23:22:19.924Z,11.50
2017-07-18T23:24:47.449Z,11.10
2017-07-18T23:27:14.943Z,10.33
2017-07-18T23:29:42.444Z,11.50
2017-07-18T23:32:10.703Z,10.50
2017-07-18T23:34:38.980Z,10.70
2017-07-18T23:37:06.460Z,9.90
2017-07-18T23:39:33.959Z,11.90
2017-07-18T23:42:01.445Z,12.33
2017-07-18T23:44:28.964Z,11.37
2017-07-18T23:46:56.447Z,10.90
2017-07-18T23:49:23.960Z,12.17
2017-07-18T23:51:51.456Z,11.57
2017-07-18T23:54:19.748Z,12.53
2017-07-18T23:56:47.262Z,12.67
2017-07-18T23:59:15.531Z,11.37
